Launceston, Australia
Current Conditions -  °F | °C
As of 3:30 AM on Tuesday 27 Jan 2015 (Local Time) from YMLT Reporting Station
Clear Clear  
Wind Chill: 50°   Ceiling: Unl
Heat Index: 50°   Visibility: 6mi
Dew Point: 41°   Wind: 6mph
Humidity: 71%   Direction: 170°S
Pressure: 30"   Gusts: NA
Location:  41.44°S, 147.14°E
Report Text: YMLT 261630Z AUTO 17005KT 9999 // NCD 10/05 Q1016
Loading
Personal Weather Stations






























Interactive Weather Map New forecast layout! Learn more

10-Day Weather Forecast

Advertisements
Track Severe Weather on mobile